Time;durP1;ratioP1;P1;durP2;ratioP2;P2;SDS_P1;SDS_P2;PMS_P1;PMS_P2;Temp;Humidity;BMP_temperature;BMP_pressure;BME280_temperature;BME280_humidity;BME280_pressure;Samples;Min_cycle;Max_cycle;Signal;HPM_P1;HPM_P2
2022/09/01 00:01:54;;;;;;;9.43;8.10;;;15.60;99.90;;;;;;5071786;28;20204;-57
2022/09/01 00:04:25;;;;;;;10.87;8.57;;;15.60;99.90;;;;;;5071826;28;20275;-57
2022/09/01 00:06:53;;;;;;;9.75;8.32;;;15.70;99.90;;;;;;5071861;28;20220;-57
2022/09/01 00:09:21;;;;;;;12.07;8.38;;;15.70;99.90;;;;;;5072011;28;20637;-57
2022/09/01 00:11:52;;;;;;;9.50;8.45;;;15.70;99.90;;;;;;5071975;28;20632;-57
2022/09/01 00:14:21;;;;;;;10.15;9.15;;;15.70;99.90;;;;;;5071510;28;20323;-58
2022/09/01 00:16:47;;;;;;;9.40;8.50;;;15.70;99.90;;;;;;5072060;28;20717;-58
2022/09/01 00:19:15;;;;;;;12.65;8.07;;;15.70;99.90;;;;;;5071789;28;20619;-58
2022/09/01 00:21:44;;;;;;;10.03;8.83;;;15.60;99.90;;;;;;5071700;28;20579;-58
2022/09/01 00:24:12;;;;;;;10.13;8.03;;;15.60;99.90;;;;;;5071969;28;20286;-58
2022/09/01 00:26:40;;;;;;;9.50;8.50;;;15.60;99.90;;;;;;5071696;28;20204;-59
2022/09/01 00:29:07;;;;;;;10.10;8.80;;;15.60;99.90;;;;;;5071623;28;20695;-59
2022/09/01 00:31:35;;;;;;;8.48;7.65;;;15.50;99.90;;;;;;5071810;28;20220;-58
2022/09/01 00:34:02;;;;;;;10.02;8.90;;;15.50;99.90;;;;;;5071477;28;20229;-58
2022/09/01 00:36:30;;;;;;;8.50;7.63;;;15.50;99.90;;;;;;5071598;28;20201;-57
2022/09/01 00:38:57;;;;;;;10.43;7.93;;;15.50;99.90;;;;;;5071672;28;20220;-62
2022/09/01 00:41:30;;;;;;;8.83;8.03;;;15.60;99.90;;;;;;5071585;28;20213;-58
2022/09/01 00:44:00;;;;;;;8.57;7.80;;;15.60;99.90;;;;;;5071485;28;20228;-58
2022/09/01 00:46:30;;;;;;;9.83;7.90;;;15.60;99.90;;;;;;5071347;28;20255;-58
2022/09/01 00:49:00;;;;;;;9.57;8.40;;;15.50;99.90;;;;;;5071737;28;20204;-58
2022/09/01 00:51:30;;;;;;;9.10;8.20;;;15.40;99.90;;;;;;5071611;28;20201;-57
2022/09/01 00:54:00;;;;;;;8.68;7.75;;;15.50;99.90;;;;;;5071633;28;20271;-58
2022/09/01 00:56:28;;;;;;;9.65;8.70;;;15.40;99.90;;;;;;5071411;28;20205;-57
2022/09/01 00:58:55;;;;;;;10.17;7.93;;;15.40;99.90;;;;;;5071281;28;20213;-57
2022/09/01 01:01:23;;;;;;;10.63;8.13;;;15.50;99.90;;;;;;5071631;28;20216;-57
2022/09/01 01:03:49;;;;;;;8.90;8.00;;;15.50;99.90;;;;;;5071409;28;20659;-58
2022/09/01 01:06:18;;;;;;;8.73;7.85;;;15.50;99.90;;;;;;5071498;28;20258;-58
2022/09/01 01:08:57;;;;;;;9.20;8.18;;;15.50;99.90;;;;;;5071115;28;20204;-58
2022/09/01 01:11:26;;;;;;;10.43;8.23;;;15.50;99.90;;;;;;5071297;28;20739;-58
2022/09/01 01:13:55;;;;;;;9.83;8.83;;;15.50;99.90;;;;;;5074133;28;20233;-58
2022/09/01 01:16:23;;;;;;;9.53;7.67;;;15.50;99.90;;;;;;5075245;28;20205;-58
2022/09/01 01:18:50;;;;;;;9.33;8.43;;;15.60;99.90;;;;;;5074802;28;20204;-58
2022/09/01 01:24:18;;;;;;;9.80;8.80;;;15.60;99.90;;;;;;5044208;28;20590;-58
2022/09/01 01:26:46;;;;;;;10.30;9.20;;;15.70;99.90;;;;;;5075247;28;20209;-58
2022/09/01 01:29:13;;;;;;;10.10;8.70;;;15.70;99.90;;;;;;5075305;28;20228;-57
2022/09/01 01:31:40;;;;;;;10.67;8.50;;;15.70;99.90;;;;;;5075245;28;20207;-58
2022/09/01 01:34:08;;;;;;;9.07;8.00;;;15.60;99.90;;;;;;5074677;28;20315;-58
2022/09/01 01:36:37;;;;;;;9.73;8.20;;;15.60;99.90;;;;;;5074344;28;20266;-58
2022/09/01 01:39:07;;;;;;;11.57;8.33;;;15.60;99.90;;;;;;5074890;28;20529;-58
2022/09/01 01:41:41;;;;;;;9.37;8.47;;;15.50;99.90;;;;;;5074703;28;20251;-56
2022/09/01 01:44:08;;;;;;;9.43;8.53;;;15.40;99.90;;;;;;5074654;28;20225;-56
2022/09/01 01:46:36;;;;;;;9.93;8.23;;;15.30;99.90;;;;;;5074277;28;20209;-58
2022/09/01 01:49:04;;;;;;;9.53;8.57;;;15.20;99.90;;;;;;5074427;28;20208;-56
2022/09/01 01:51:31;;;;;;;9.17;7.83;;;15.10;99.90;;;;;;5074662;28;20201;-56
2022/09/01 01:54:04;;;;;;;11.43;8.13;;;15.20;99.90;;;;;;5074428;28;20312;-56
2022/09/01 01:56:32;;;;;;;9.10;8.20;;;15.20;99.90;;;;;;5074426;28;20216;-56
2022/09/01 01:59:00;;;;;;;9.37;8.10;;;15.20;99.90;;;;;;5074315;28;20208;-56
2022/09/01 02:01:30;;;;;;;10.07;8.00;;;15.20;99.90;;;;;;5074153;28;20232;-56
2022/09/01 02:03:59;;;;;;;9.27;8.10;;;15.20;99.90;;;;;;5074119;28;20707;-56
2022/09/01 02:06:26;;;;;;;12.10;8.02;;;15.30;99.90;;;;;;5074276;28;20266;-56
2022/09/01 02:08:56;;;;;;;9.03;8.13;;;15.20;99.90;;;;;;5073948;28;20205;-56
2022/09/01 02:11:24;;;;;;;11.30;8.20;;;15.10;99.90;;;;;;5074128;28;20209;-58
2022/09/01 02:13:56;;;;;;;9.07;8.17;;;14.90;99.90;;;;;;5073837;28;20327;-58
2022/09/01 02:16:25;;;;;;;8.77;7.63;;;14.90;99.90;;;;;;5074222;28;20209;-57
2022/09/01 02:18:52;;;;;;;12.23;9.30;;;14.80;99.90;;;;;;5073859;28;20208;-56
2022/09/01 02:21:21;;;;;;;12.63;9.67;;;14.70;99.90;;;;;;5073995;28;20251;-57
2022/09/01 02:23:54;;;;;;;10.40;8.40;;;14.60;99.90;;;;;;5073206;28;20611;-57
2022/09/01 02:26:25;;;;;;;10.27;8.67;;;14.60;99.90;;;;;;5074198;28;20200;-56
2022/09/01 02:28:53;;;;;;;9.67;8.00;;;14.60;99.90;;;;;;5073717;28;20209;-56
2022/09/01 02:31:21;;;;;;;10.97;8.57;;;14.60;99.90;;;;;;5074314;28;20209;-57
2022/09/01 02:33:50;;;;;;;9.33;8.40;;;14.60;99.90;;;;;;5073712;28;20224;-57
2022/09/01 02:36:18;;;;;;;11.30;8.20;;;14.50;99.90;;;;;;5073451;28;20730;-56
2022/09/01 02:38:47;;;;;;;9.60;8.70;;;14.50;99.90;;;;;;5073401;28;20209;-57
2022/09/01 02:41:21;;;;;;;10.03;8.47;;;14.60;99.90;;;;;;5073710;28;20205;-57
2022/09/01 02:43:48;;;;;;;11.03;9.20;;;14.60;99.90;;;;;;5073340;28;20228;-56
2022/09/01 02:46:15;;;;;;;10.13;8.87;;;14.70;99.90;;;;;;5073478;28;20209;-57
2022/09/01 02:48:44;;;;;;;10.40;9.40;;;14.70;99.90;;;;;;5073111;28;20217;-56
2022/09/01 02:51:15;;;;;;;19.40;14.73;;;14.80;99.90;;;;;;5073422;28;20240;-57
2022/09/01 02:53:44;;;;;;;15.07;11.43;;;14.80;99.90;;;;;;5073181;28;20656;-56
2022/09/01 02:56:12;;;;;;;15.37;13.70;;;14.80;99.90;;;;;;5073006;28;20235;-57
2022/09/01 02:58:44;;;;;;;13.83;11.33;;;14.90;99.90;;;;;;5072968;28;20209;-56
2022/09/01 03:01:13;;;;;;;10.43;9.20;;;14.90;99.90;;;;;;5073208;28;20254;-57
2022/09/01 03:03:39;;;;;;;13.07;10.10;;;15.00;99.90;;;;;;5073105;28;20221;-56
2022/09/01 03:06:08;;;;;;;11.37;10.13;;;14.90;99.90;;;;;;5072923;28;20209;-57
2022/09/01 03:08:38;;;;;;;12.23;11.03;;;14.90;99.90;;;;;;5072609;28;20665;-56
2022/09/01 03:11:09;;;;;;;11.03;9.90;;;14.90;99.90;;;;;;5072923;28;20237;-57
2022/09/01 03:13:38;;;;;;;12.13;10.03;;;14.90;99.90;;;;;;5072764;28;20240;-57
2022/09/01 03:16:05;;;;;;;12.20;10.93;;;15.00;99.90;;;;;;5072694;28;20315;-56
2022/09/01 03:18:32;;;;;;;13.57;11.70;;;15.00;99.90;;;;;;5072470;28;20205;-56
2022/09/01 03:21:01;;;;;;;12.63;10.57;;;15.00;99.90;;;;;;5072960;28;20209;-57
2022/09/01 03:23:30;;;;;;;11.67;10.50;;;15.00;99.90;;;;;;5072799;28;20844;-59
2022/09/01 03:25:58;;;;;;;15.43;11.80;;;15.00;99.90;;;;;;5072486;28;20334;-57
2022/09/01 03:28:25;;;;;;;12.13;10.83;;;15.00;99.90;;;;;;5072239;28;20722;-57
2022/09/01 03:30:54;;;;;;;12.73;10.30;;;15.10;99.90;;;;;;5073002;28;20258;-57
2022/09/01 03:33:23;;;;;;;13.30;11.40;;;15.10;99.90;;;;;;5072276;28;20651;-56
2022/09/01 03:35:50;;;;;;;10.30;9.30;;;15.00;99.90;;;;;;5071521;28;20700;-56
2022/09/01 03:38:21;;;;;;;10.00;9.00;;;15.10;99.90;;;;;;5072282;28;20208;-57
2022/09/01 03:40:49;;;;;;;9.73;8.57;;;15.10;99.90;;;;;;5072489;28;20211;-58
2022/09/01 03:43:18;;;;;;;10.63;8.47;;;15.00;99.90;;;;;;5072126;28;20296;-58
2022/09/01 03:45:45;;;;;;;10.83;9.80;;;14.80;99.90;;;;;;5072136;28;20197;-56
2022/09/01 03:48:15;;;;;;;10.97;9.57;;;14.70;99.90;;;;;;5072210;28;20208;-57
2022/09/01 03:50:45;;;;;;;14.80;13.23;;;14.60;99.90;;;;;;5072411;28;20687;-57
2022/09/01 03:53:14;;;;;;;10.53;9.47;;;14.60;99.90;;;;;;5072242;28;20292;-56
2022/09/01 03:55:42;;;;;;;12.00;9.77;;;14.60;99.90;;;;;;5072063;28;20266;-57
2022/09/01 03:58:11;;;;;;;11.13;9.97;;;14.50;99.90;;;;;;5071678;28;20288;-57
2022/09/01 04:00:42;;;;;;;10.73;9.70;;;14.50;99.90;;;;;;5072243;28;20245;-57
2022/09/01 04:03:11;;;;;;;10.93;9.80;;;14.40;99.90;;;;;;5072163;28;20204;-57
2022/09/01 04:05:41;;;;;;;11.80;9.67;;;14.40;99.90;;;;;;5072271;28;20303;-56
2022/09/01 04:08:11;;;;;;;12.90;10.23;;;14.30;99.90;;;;;;5072163;28;20196;-57
2022/09/01 04:10:48;;;;;;;13.17;10.60;;;14.30;99.90;;;;;;5071873;28;20232;-57
2022/09/01 04:15:45;;;;;;;12.03;10.83;;;14.30;99.90;;;;;;5070924;28;20232;-56
2022/09/01 04:18:18;;;;;;;12.07;10.73;;;14.30;99.90;;;;;;5072499;28;20200;-57
2022/09/01 04:20:49;;;;;;;13.50;10.20;;;14.40;99.90;;;;;;5072865;28;20197;-57
2022/09/01 04:23:25;;;;;;;11.97;10.17;;;14.40;99.90;;;;;;5072628;28;20220;-57
2022/09/01 04:25:55;;;;;;;11.10;9.90;;;14.40;99.90;;;;;;5073412;28;20212;-56
2022/09/01 04:28:25;;;;;;;12.23;10.93;;;14.50;99.90;;;;;;5073484;28;20306;-57
2022/09/01 04:30:58;;;;;;;12.77;11.07;;;14.50;99.90;;;;;;5073631;28;20204;-57
2022/09/01 04:33:26;;;;;;;11.67;10.47;;;14.50;99.90;;;;;;5073826;28;20212;-56
2022/09/01 04:35:55;;;;;;;13.17;10.97;;;14.50;99.90;;;;;;5073531;28;20224;-57
2022/09/01 04:38:24;;;;;;;11.90;10.73;;;14.40;99.90;;;;;;5073222;28;20250;-57
2022/09/01 04:40:52;;;;;;;13.00;11.37;;;14.40;99.90;;;;;;5072875;28;20212;-57
2022/09/01 04:43:19;;;;;;;13.67;11.70;;;14.40;99.90;;;;;;5072367;28;20304;-56
2022/09/01 04:45:50;;;;;;;12.10;10.90;;;14.40;99.90;;;;;;5072442;28;20201;-57
2022/09/01 04:48:19;;;;;;;14.43;10.90;;;14.50;99.90;;;;;;5075864;28;20234;-57
2022/09/01 04:50:48;;;;;;;13.97;11.10;;;14.50;99.90;;;;;;5076429;28;20268;-57
2022/09/01 04:53:17;;;;;;;14.37;10.40;;;14.50;99.90;;;;;;5076139;28;20286;-57
2022/09/01 04:55:45;;;;;;;11.60;10.23;;;14.60;99.90;;;;;;5076386;28;20259;-57
2022/09/01 04:58:16;;;;;;;12.10;10.53;;;14.60;99.90;;;;;;5075923;28;20212;-57
2022/09/01 05:00:46;;;;;;;12.00;10.37;;;14.60;99.90;;;;;;5076440;28;20635;-57
2022/09/01 05:03:14;;;;;;;13.87;10.27;;;14.50;99.90;;;;;;5076112;28;20209;-57
2022/09/01 05:05:44;;;;;;;11.47;9.73;;;14.50;99.90;;;;;;5076175;28;20212;-58
2022/09/01 05:08:13;;;;;;;10.57;9.50;;;14.50;99.90;;;;;;5075786;28;20219;-57
2022/09/01 05:10:42;;;;;;;12.50;10.10;;;14.50;99.90;;;;;;5076024;28;20208;-57
2022/09/01 05:13:11;;;;;;;12.47;10.77;;;14.60;99.90;;;;;;5075693;28;20212;-57
2022/09/01 05:15:45;;;;;;;11.93;9.63;;;14.80;99.90;;;;;;5075961;28;20231;-57
2022/09/01 05:18:13;;;;;;;11.37;9.37;;;14.90;99.90;;;;;;5075162;28;20747;-57
2022/09/01 05:20:42;;;;;;;11.63;10.53;;;15.10;99.90;;;;;;5075451;28;20688;-57
2022/09/01 05:23:12;;;;;;;13.80;10.87;;;15.30;99.90;;;;;;5075538;28;20220;-58
2022/09/01 05:25:41;;;;;;;12.40;10.57;;;15.40;99.90;;;;;;5075348;28;20739;-57
2022/09/01 05:28:10;;;;;;;11.83;10.20;;;15.40;99.90;;;;;;5075271;28;20239;-58
2022/09/01 05:30:38;;;;;;;12.23;10.20;;;15.60;99.90;;;;;;5075474;28;20572;-58
2022/09/01 05:33:10;;;;;;;12.13;9.97;;;15.80;99.90;;;;;;5075494;28;20657;-58
2022/09/01 05:35:39;;;;;;;13.70;10.40;;;15.90;99.90;;;;;;5075508;28;20270;-59
2022/09/01 05:38:09;;;;;;;10.93;9.83;;;16.10;99.90;;;;;;5075036;28;20250;-57
2022/09/01 05:40:40;;;;;;;10.67;9.63;;;16.20;99.90;;;;;;5075589;28;20678;-57
2022/09/01 05:43:09;;;;;;;12.77;10.53;;;16.30;99.90;;;;;;5075401;28;20208;-57
2022/09/01 05:45:37;;;;;;;11.10;10.00;;;16.40;99.90;;;;;;5075267;28;20204;-58
2022/09/01 05:48:04;;;;;;;12.20;10.93;;;16.40;99.90;;;;;;5074963;28;20201;-57
2022/09/01 05:50:31;;;;;;;12.60;10.40;;;16.50;99.90;;;;;;5074832;28;20288;-58
2022/09/01 05:52:58;;;;;;;16.03;10.90;;;16.60;99.90;;;;;;5075277;28;20212;-58
2022/09/01 05:55:26;;;;;;;13.53;10.60;;;16.80;99.90;;;;;;5074905;28;20610;-57
2022/09/01 05:57:54;;;;;;;12.00;10.83;;;16.90;99.90;;;;;;5074386;28;20239;-57
2022/09/01 06:00:21;;;;;;;14.00;12.50;;;17.00;99.90;;;;;;5074812;28;20625;-57
2022/09/01 06:02:48;;;;;;;16.27;12.48;;;17.10;99.90;;;;;;5074888;28;20601;-58
2022/09/01 06:05:15;;;;;;;12.85;11.48;;;17.40;99.90;;;;;;5074974;28;20256;-57
2022/09/01 06:07:43;;;;;;;15.00;10.85;;;17.50;99.90;;;;;;5074929;28;20217;-58
2022/09/01 06:10:11;;;;;;;12.82;11.30;;;17.60;99.90;;;;;;5075744;28;20213;-58
2022/09/01 06:12:39;;;;;;;12.07;10.77;;;17.80;99.90;;;;;;5075172;28;20606;-58
2022/09/01 06:15:14;;;;;;;12.35;11.05;;;17.90;99.90;;;;;;5075916;28;20233;-57
2022/09/01 06:17:42;;;;;;;13.50;11.52;;;18.10;99.90;;;;;;5075460;28;20210;-58
2022/09/01 06:20:09;;;;;;;13.77;11.20;;;18.20;99.90;;;;;;5075419;28;20209;-57
2022/09/01 06:22:36;;;;;;;12.43;10.43;;;18.40;99.90;;;;;;5075479;28;20680;-57
2022/09/01 06:25:05;;;;;;;12.25;10.95;;;18.50;99.90;;;;;;5075509;28;20597;-57
2022/09/01 06:27:32;;;;;;;11.50;10.32;;;18.80;99.90;;;;;;5075580;28;20205;-58
2022/09/01 06:30:01;;;;;;;11.57;10.35;;;18.90;99.90;;;;;;5075575;28;20734;-57
2022/09/01 06:32:28;;;;;;;16.77;11.57;;;19.20;99.90;;;;;;5075020;28;20245;-58
2022/09/01 06:34:56;;;;;;;12.10;9.75;;;19.50;99.90;;;;;;5075405;28;20515;-58
2022/09/01 06:37:24;;;;;;;11.48;9.50;;;20.90;99.90;;;;;;5074494;28;20757;-58
2022/09/01 06:39:51;;;;;;;8.57;7.68;;;22.80;99.90;;;;;;5074902;28;20212;-58
2022/09/01 06:42:18;;;;;;;9.30;7.95;;;24.60;99.90;;;;;;5074484;28;20209;-58
2022/09/01 06:44:45;;;;;;;8.45;7.70;;;26.20;99.90;;;;;;5074237;28;20335;-59
2022/09/01 06:47:14;;;;;;;7.68;6.97;;;27.20;99.90;;;;;;5074637;28;20201;-58
2022/09/01 06:49:40;;;;;;;8.23;7.38;;;27.90;99.90;;;;;;5073978;28;20665;-59
2022/09/01 06:52:08;;;;;;;7.65;6.82;;;28.30;99.90;;;;;;5074212;28;20209;-59
2022/09/01 06:54:37;;;;;;;7.47;6.68;;;28.50;99.90;;;;;;5074031;28;20256;-59
2022/09/01 06:57:05;;;;;;;8.25;7.45;;;28.40;99.90;;;;;;5073228;28;20239;-59
2022/09/01 06:59:32;;;;;;;9.68;7.38;;;27.70;99.90;;;;;;5073475;28;20216;-58
2022/09/01 07:02:00;;;;;;;9.45;8.55;;;26.90;99.90;;;;;;5073758;28;20201;-58
2022/09/01 07:04:29;;;;;;;9.18;8.27;;;26.10;99.90;;;;;;5073490;28;20312;-58
2022/09/01 07:06:56;;;;;;;9.60;8.60;;;25.30;99.90;;;;;;5073553;28;20230;-58
2022/09/01 07:09:23;;;;;;;9.23;8.32;;;24.50;99.90;;;;;;5073120;28;20209;-58
2022/09/01 07:11:51;;;;;;;10.27;9.27;;;23.90;99.90;;;;;;5073096;28;20213;-58
2022/09/01 07:14:18;;;;;;;10.38;9.07;;;23.50;99.90;;;;;;5073155;28;20232;-58
2022/09/01 07:16:45;;;;;;;11.18;8.48;;;23.10;99.90;;;;;;5073432;28;20235;-58
2022/09/01 07:19:13;;;;;;;9.98;8.98;;;23.10;99.90;;;;;;5073005;28;20457;-58
2022/09/01 07:21:43;;;;;;;9.02;8.10;;;23.20;99.90;;;;;;5073636;28;20274;-59
2022/09/01 07:24:11;;;;;;;9.18;8.18;;;23.40;99.90;;;;;;5072811;28;20233;-59
2022/09/01 07:26:38;;;;;;;8.88;7.97;;;24.10;99.90;;;;;;5073082;28;20208;-59
2022/09/01 07:29:06;;;;;;;8.70;7.80;;;25.40;99.90;;;;;;5073045;28;20254;-58
2022/09/01 07:31:35;;;;;;;11.32;8.50;;;26.10;99.90;;;;;;5072899;28;20235;-58
2022/09/01 07:34:11;;;;;;;9.43;8.35;;;26.10;99.90;;;;;;5072722;28;20700;-59
2022/09/01 07:36:39;;;;;;;9.00;8.10;;;26.30;99.90;;;;;;5072876;28;20270;-59
2022/09/01 07:39:07;;;;;;;9.73;8.02;;;26.00;99.90;;;;;;5072712;28;20209;-59
2022/09/01 07:41:34;;;;;;;10.55;8.27;;;25.60;99.90;;;;;;5072741;28;20669;-59
2022/09/01 07:44:04;;;;;;;10.10;7.95;;;25.40;99.90;;;;;;5072665;28;20221;-58
2022/09/01 07:46:31;;;;;;;8.60;7.75;;;25.30;99.90;;;;;;5073624;28;20567;-59
2022/09/01 07:49:00;;;;;;;6.75;6.15;;;25.60;99.90;;;;;;5072660;28;20204;-61
2022/09/01 07:51:28;;;;;;;6.80;6.10;;;26.30;99.90;;;;;;5072747;28;20212;-61
2022/09/01 07:53:56;;;;;;;7.53;6.13;;;27.00;99.90;;;;;;5072773;28;20232;-57
2022/09/01 07:56:25;;;;;;;7.50;6.80;;;27.40;99.90;;;;;;5072943;28;20231;-58
2022/09/01 07:58:52;;;;;;;6.57;5.90;;;27.50;99.90;;;;;;5072790;28;20201;-58
2022/09/01 08:01:21;;;;;;;6.10;5.50;;;27.80;99.70;;;;;;5073194;28;20213;-57
2022/09/01 08:03:51;;;;;;;4.65;4.25;;;28.20;99.10;;;;;;5072611;28;20719;-58
2022/09/01 08:06:20;;;;;;;5.15;4.65;;;28.40;96.90;;;;;;5073052;28;20212;-57
2022/09/01 08:08:48;;;;;;;6.25;4.80;;;28.10;96.90;;;;;;5072491;28;20322;-58
2022/09/01 08:11:21;;;;;;;5.40;4.90;;;27.60;97.50;;;;;;5072842;28;20295;-57
2022/09/01 08:13:49;;;;;;;4.53;4.07;;;27.00;98.70;;;;;;5072899;28;20244;-58
2022/09/01 08:16:16;;;;;;;4.35;3.95;;;26.50;98.50;;;;;;5072690;28;20239;-57
2022/09/01 08:18:43;;;;;;;6.03;4.28;;;25.90;99.20;;;;;;5072176;28;20275;-57
2022/09/01 08:21:12;;;;;;;4.15;3.75;;;25.60;99.80;;;;;;5072568;28;20266;-57
2022/09/01 08:23:39;;;;;;;4.55;3.65;;;25.40;99.90;;;;;;5072833;28;20358;-58
2022/09/01 08:26:08;;;;;;;4.47;4.07;;;25.30;99.90;;;;;;5072186;28;20615;-57
2022/09/01 08:28:35;;;;;;;4.13;3.72;;;25.00;99.90;;;;;;5072495;28;20242;-58
2022/09/01 08:31:09;;;;;;;4.40;4.00;;;24.90;99.90;;;;;;5073082;28;20208;-57
2022/09/01 08:33:36;;;;;;;4.40;3.63;;;24.80;99.90;;;;;;5072741;28;20232;-58
2022/09/01 08:36:03;;;;;;;4.72;4.00;;;24.80;99.90;;;;;;5072439;28;20838;-57
2022/09/01 08:38:30;;;;;;;4.38;3.97;;;24.80;99.90;;;;;;5072788;28;20250;-58
2022/09/01 08:40:59;;;;;;;4.07;3.40;;;24.80;99.90;;;;;;5072572;28;20236;-64
2022/09/01 08:43:36;;;;;;;3.75;3.30;;;24.70;99.90;;;;;;5072517;28;20205;-57
2022/09/01 08:46:12;;;;;;;4.22;3.70;;;24.40;99.90;;;;;;5072493;28;20211;-61
2022/09/01 08:48:41;;;;;;;4.30;3.65;;;23.90;99.90;;;;;;5071769;28;20205;-57
2022/09/01 08:51:15;;;;;;;3.70;3.40;;;23.50;99.90;;;;;;5072824;28;20209;-58
2022/09/01 08:53:48;;;;;;;4.00;3.60;;;23.40;99.90;;;;;;5072668;28;20231;-57
2022/09/01 08:56:17;;;;;;;3.72;3.33;;;23.50;99.90;;;;;;5072250;28;20696;-57
2022/09/01 08:58:43;;;;;;;5.03;3.25;;;23.60;99.90;;;;;;5073436;28;20208;-57
2022/09/01 09:01:20;;;;;;;4.35;3.33;;;23.80;99.90;;;;;;5074239;28;20715;-58
2022/09/01 09:03:59;;;;;;;4.50;3.50;;;24.00;99.90;;;;;;5073651;28;20315;-57
2022/09/01 09:06:33;;;;;;;5.38;3.10;;;24.00;99.90;;;;;;5073704;28;20208;-57
2022/09/01 09:09:02;;;;;;;3.92;3.60;;;23.70;99.90;;;;;;5072920;28;20226;-57
2022/09/01 09:11:51;;;;;;;4.78;3.33;;;23.50;99.90;;;;;;5073909;28;20262;-56
2022/09/01 09:14:30;;;;;;;4.07;3.40;;;23.20;99.90;;;;;;5074161;28;20228;-56
2022/09/01 09:16:59;;;;;;;4.28;3.45;;;23.00;99.90;;;;;;5072663;28;20221;-59
2022/09/01 09:19:30;;;;;;;4.28;3.78;;;22.90;99.90;;;;;;5072295;28;20209;-57
2022/09/01 09:21:59;;;;;;;3.58;3.28;;;23.00;99.90;;;;;;5072631;28;20209;-56
2022/09/01 09:24:45;;;;;;;3.72;3.42;;;23.20;99.90;;;;;;5072666;28;20221;-55
2022/09/01 09:27:17;;;;;;;3.72;3.38;;;23.30;99.90;;;;;;5072474;28;20205;-57
2022/09/01 09:29:45;;;;;;;6.80;3.55;;;23.70;99.90;;;;;;5072468;28;20205;-56
2022/09/01 09:32:13;;;;;;;3.95;3.38;;;23.90;99.90;;;;;;5071454;28;20200;-57
2022/09/01 09:34:42;;;;;;;3.80;3.40;;;24.00;99.90;;;;;;5074304;28;20225;-57
2022/09/01 09:37:24;;;;;;;3.55;3.13;;;24.00;99.90;;;;;;5075242;28;20250;-57
2022/09/01 09:40:13;;;;;;;3.83;3.20;;;24.30;99.90;;;;;;5075351;28;20215;-57
2022/09/01 09:42:42;;;;;;;3.28;2.97;;;24.50;99.90;;;;;;5075141;28;20205;-57
2022/09/01 09:45:23;;;;;;;3.47;3.15;;;24.70;99.90;;;;;;5075008;28;20697;-57
2022/09/01 09:47:53;;;;;;;4.97;3.10;;;24.60;99.90;;;;;;5075225;28;20208;-57
2022/09/01 09:50:25;;;;;;;3.72;3.05;;;24.80;99.90;;;;;;5075290;28;20704;-57
2022/09/01 09:53:09;;;;;;;3.55;3.00;;;25.00;99.90;;;;;;5076626;28;20208;-58
2022/09/01 09:55:48;;;;;;;3.20;2.90;;;25.30;99.90;;;;;;5076346;28;20664;-56
2022/09/01 09:58:15;;;;;;;3.75;3.13;;;25.60;99.80;;;;;;5075449;28;20224;-57
2022/09/01 10:00:59;;;;;;;4.20;3.00;;;26.00;98.60;;;;;;5075212;28;20205;-58
2022/09/01 10:03:38;;;;;;;3.58;2.90;;;26.40;98.20;;;;;;5075103;28;20247;-59
2022/09/01 10:06:08;;;;;;;3.53;3.22;;;26.50;97.70;;;;;;5074665;28;20207;-58
2022/09/01 10:08:43;;;;;;;2.95;2.72;;;26.80;97.00;;;;;;5074770;28;20205;-58
2022/09/01 10:11:12;;;;;;;3.05;2.50;;;27.00;96.20;;;;;;5075657;28;20205;-58
2022/09/01 10:13:38;;;;;;;4.15;2.58;;;27.10;95.60;;;;;;5089607;22;20264;-57
2022/09/01 10:16:08;;;;;;;4.65;3.10;;;27.10;95.40;;;;;;5063252;28;20550;-57
2022/09/01 10:18:40;;;;;;;3.03;2.72;;;27.00;95.50;;;;;;5073988;28;20225;-57
2022/09/01 10:21:11;;;;;;;2.72;2.50;;;26.50;95.70;;;;;;5074334;28;20213;-57
2022/09/01 10:23:40;;;;;;;3.72;2.80;;;26.00;96.90;;;;;;5073800;28;20205;-58
2022/09/01 10:26:11;;;;;;;3.53;3.10;;;25.60;97.60;;;;;;5074231;28;20205;-58
2022/09/01 10:28:47;;;;;;;3.00;2.72;;;25.50;98.20;;;;;;5073810;28;20201;-59
2022/09/01 10:31:14;;;;;;;4.50;2.50;;;25.60;97.90;;;;;;5073796;28;20227;-59
2022/09/01 10:33:43;;;;;;;3.70;2.70;;;25.70;98.00;;;;;;5073676;28;20232;-59
2022/09/01 10:36:10;;;;;;;3.15;2.85;;;25.80;97.40;;;;;;5074145;28;20254;-59
2022/09/01 10:38:36;;;;;;;4.00;2.80;;;26.00;97.00;;;;;;5073487;28;20640;-59
2022/09/01 10:41:10;;;;;;;3.00;2.70;;;26.10;96.90;;;;;;5073863;28;20216;-58
2022/09/01 10:43:41;;;;;;;3.90;2.85;;;26.20;96.60;;;;;;5073671;28;20212;-58
2022/09/01 10:46:43;;;;;;;4.05;3.67;;;26.30;96.00;;;;;;5073151;28;20212;-58
2022/09/01 10:49:49;;;;;;;3.28;2.90;;;26.40;96.10;;;;;;5073439;28;20236;-58
2022/09/01 10:52:49;;;;;;;3.63;2.60;;;26.80;95.30;;;;;;5073516;28;20287;-57
2022/09/01 10:55:18;;;;;;;2.63;2.42;;;27.20;94.40;;;;;;5073460;28;20652;-59
2022/09/01 10:57:53;;;;;;;2.83;2.50;;;27.30;94.00;;;;;;5073468;28;20275;-59
2022/09/01 11:01:01;;;;;;;3.03;2.72;;;27.00;94.20;;;;;;5073317;28;20220;-58
2022/09/01 11:03:55;;;;;;;3.03;2.70;;;27.10;94.10;;;;;;5073968;28;20205;-58
2022/09/01 11:07:05;;;;;;;3.00;2.80;;;27.00;94.40;;;;;;5026865;28;20703;-58
2022/09/01 11:09:35;;;;;;;3.08;2.63;;;27.10;93.80;;;;;;5063395;28;20215;-57
2022/09/01 11:12:30;;;;;;;2.75;2.47;;;27.40;93.60;;;;;;5073412;28;20695;-57
2022/09/01 11:14:59;;;;;;;3.05;2.40;;;27.60;93.00;;;;;;5073022;28;20696;-58
2022/09/01 11:17:28;;;;;;;2.83;2.40;;;27.30;91.90;;;;;;5073218;28;20696;-58
2022/09/01 11:19:58;;;;;;;3.97;2.53;;;27.20;92.60;;;;;;5072846;28;20230;-57
2022/09/01 11:22:31;;;;;;;3.17;2.50;;;27.20;92.70;;;;;;5072817;28;20680;-58
2022/09/01 11:25:36;;;;;;;4.53;2.60;;;27.20;92.30;;;;;;5072797;28;20228;-58
2022/09/01 11:28:07;;;;;;;2.47;2.20;;;27.00;92.80;;;;;;5072297;28;20200;-57
2022/09/01 11:30:49;;;;;;;2.80;2.40;;;27.30;92.30;;;;;;5072802;28;20262;-58
2022/09/01 11:33:27;;;;;;;2.63;2.42;;;27.50;91.80;;;;;;5072741;28;20261;-58
2022/09/01 11:35:59;;;;;;;2.72;2.50;;;27.40;91.80;;;;;;5072412;28;20255;-58
2022/09/01 11:38:31;;;;;;;3.05;2.55;;;27.20;92.20;;;;;;5072330;28;20700;-59
2022/09/01 11:40:58;;;;;;;3.15;2.85;;;26.90;92.50;;;;;;5072750;28;20212;-59
2022/09/01 11:43:26;;;;;;;3.60;2.78;;;26.60;93.20;;;;;;5072394;28;20204;-56
2022/09/01 11:46:03;;;;;;;3.10;2.70;;;26.40;92.70;;;;;;5072088;28;20217;-57
2022/09/01 11:48:29;;;;;;;2.97;2.40;;;25.90;92.80;;;;;;5071976;28;20196;-57
2022/09/01 11:50:59;;;;;;;3.15;2.70;;;25.70;92.90;;;;;;5072099;28;20204;-57
2022/09/01 11:53:28;;;;;;;2.60;2.40;;;25.50;93.00;;;;;;5072344;28;20205;-57
2022/09/01 11:56:10;;;;;;;3.45;2.72;;;25.40;93.40;;;;;;5071818;28;20213;-57
2022/09/01 11:58:38;;;;;;;3.25;2.63;;;25.50;93.50;;;;;;5072156;28;20303;-57
2022/09/01 12:01:18;;;;;;;2.83;2.63;;;25.40;94.10;;;;;;5072047;28;20684;-58
2022/09/01 12:03:48;;;;;;;3.20;2.70;;;25.40;94.30;;;;;;5072521;28;20311;-57
2022/09/01 12:06:20;;;;;;;3.63;2.78;;;25.40;94.60;;;;;;5072744;28;20209;-57
2022/09/01 12:08:55;;;;;;;3.40;2.95;;;25.50;94.60;;;;;;5072300;28;20223;-57
2022/09/01 12:11:29;;;;;;;4.85;2.55;;;25.60;94.20;;;;;;5072407;28;20659;-57
2022/09/01 12:13:59;;;;;;;2.95;2.72;;;25.90;94.20;;;;;;5071837;28;20236;-57
2022/09/01 12:16:26;;;;;;;2.80;2.60;;;26.20;94.00;;;;;;5071922;28;20291;-58
2022/09/01 12:18:55;;;;;;;4.47;2.90;;;26.30;94.40;;;;;;5071754;28;20229;-57
2022/09/01 12:21:25;;;;;;;3.10;2.80;;;26.20;94.20;;;;;;5071785;28;20680;-57
2022/09/01 12:23:54;;;;;;;6.15;3.20;;;26.10;94.40;;;;;;5071804;28;20229;-58
2022/09/01 12:26:25;;;;;;;5.10;2.90;;;25.90;94.50;;;;;;5071739;28;20675;-58
2022/09/01 12:28:53;;;;;;;3.17;2.85;;;25.70;95.30;;;;;;5071676;28;20201;-58
2022/09/01 12:31:22;;;;;;;3.10;2.80;;;25.40;95.40;;;;;;5071856;28;20610;-58
2022/09/01 12:33:50;;;;;;;3.22;2.92;;;25.20;95.90;;;;;;5071907;28;20274;-59
2022/09/01 12:36:23;;;;;;;3.38;3.08;;;25.20;95.70;;;;;;5071922;28;20205;-58
2022/09/01 12:38:51;;;;;;;3.63;3.10;;;25.20;95.40;;;;;;5071623;28;20312;-58
2022/09/01 12:41:32;;;;;;;3.35;3.05;;;25.20;95.70;;;;;;5071952;28;20215;-58
2022/09/01 12:44:26;;;;;;;3.33;3.03;;;25.00;96.20;;;;;;5071600;28;20759;-58
2022/09/01 12:46:53;;;;;;;3.90;3.20;;;25.00;96.60;;;;;;5071812;28;20299;-58
2022/09/01 12:49:25;;;;;;;4.32;3.00;;;25.30;95.70;;;;;;5071321;28;20224;-58
2022/09/01 12:52:06;;;;;;;2.72;2.50;;;25.70;94.80;;;;;;5071886;28;20299;-58
2022/09/01 12:54:33;;;;;;;3.95;2.70;;;25.70;94.20;;;;;;5071511;28;20228;-58
2022/09/01 12:57:01;;;;;;;2.80;2.60;;;25.70;93.90;;;;;;5071539;28;20204;-58
2022/09/01 12:59:28;;;;;;;3.13;2.65;;;25.90;93.70;;;;;;5071255;28;20290;-58
2022/09/01 13:01:54;;;;;;;2.42;2.10;;;26.00;92.70;;;;;;5071432;28;20209;-58
2022/09/01 13:04:28;;;;;;;2.70;2.08;;;26.00;91.70;;;;;;5071611;28;20278;-58